createdAt,value
2018-10-21T00:02:27.465Z,28.63
2018-10-21T00:04:55.269Z,31.27
2018-10-21T00:07:23.426Z,32.47
2018-10-21T00:09:51.579Z,35.27
2018-10-21T00:12:19.709Z,25.80
2018-10-21T00:14:47.869Z,33.80
2018-10-21T00:17:16.019Z,30.63
2018-10-21T00:19:44.177Z,30.23
2018-10-21T00:22:12.418Z,29.43
2018-10-21T00:24:40.331Z,32.47
2018-10-21T00:27:08.432Z,30.63
2018-10-21T00:29:36.521Z,38.30
2018-10-21T00:32:04.737Z,35.53
2018-10-21T00:34:32.664Z,35.07
2018-10-21T00:37:00.809Z,33.87
2018-10-21T00:39:28.757Z,31.07
2018-10-21T00:41:56.677Z,32.73
2018-10-21T00:44:24.586Z,34.57
2018-10-21T00:46:52.757Z,32.10
2018-10-21T00:49:20.685Z,32.13
2018-10-21T00:51:48.613Z,31.07
2018-10-21T00:54:17.174Z,34.10
2018-10-21T00:56:46.301Z,33.83
2018-10-21T00:59:14.462Z,35.50
2018-10-21T01:01:42.592Z,33.73
2018-10-21T01:04:10.831Z,36.87
2018-10-21T01:06:38.894Z,37.20
2018-10-21T01:09:08.931Z,33.20
2018-10-21T01:11:37.125Z,34.10
2018-10-21T01:14:05.049Z,37.37
2018-10-21T01:16:32.973Z,37.73
2018-10-21T01:19:00.877Z,37.27
2018-10-21T01:21:28.840Z,36.60
2018-10-21T01:23:56.964Z,38.40
2018-10-21T01:26:24.856Z,38.00
2018-10-21T01:28:52.916Z,41.27
2018-10-21T01:31:20.829Z,35.97
2018-10-21T01:33:48.961Z,36.43
2018-10-21T01:36:17.114Z,33.30
2018-10-21T01:38:44.989Z,31.60
2018-10-21T01:41:13.114Z,32.77
2018-10-21T01:43:41.270Z,34.93
2018-10-21T01:46:09.409Z,36.70
2018-10-21T01:48:37.581Z,30.73
2018-10-21T01:51:05.502Z,33.83
2018-10-21T01:53:33.617Z,36.37
2018-10-21T01:56:01.783Z,35.47
2018-10-21T01:58:29.696Z,36.47
2018-10-21T02:00:58.553Z,39.63
2018-10-21T02:03:26.712Z,35.00
2018-10-21T02:05:54.845Z,30.67
2018-10-21T02:08:23.002Z,31.47
2018-10-21T02:10:51.149Z,29.07
2018-10-21T02:13:19.313Z,27.57
2018-10-21T02:15:47.450Z,29.33
2018-10-21T02:18:15.596Z,26.47
2018-10-21T02:20:43.728Z,27.97
2018-10-21T02:23:11.934Z,31.83
2018-10-21T02:25:40.074Z,26.97
2018-10-21T02:28:08.277Z,36.43
2018-10-21T02:30:36.153Z,30.47
2018-10-21T02:33:04.322Z,37.17
2018-10-21T02:35:32.466Z,36.57
2018-10-21T02:38:00.610Z,32.80
2018-10-21T02:41:39.933Z,39.47
2018-10-21T02:44:09.249Z,41.90
2018-10-21T02:46:38.026Z,38.90
2018-10-21T02:49:06.806Z,40.73
2018-10-21T02:51:34.958Z,38.20
2018-10-21T02:54:03.110Z,45.10
2018-10-21T02:56:31.051Z,40.73
2018-10-21T02:58:59.181Z,37.13
2018-10-21T03:01:27.333Z,35.60
2018-10-21T03:03:55.499Z,32.50
2018-10-21T03:06:23.630Z,38.67
2018-10-21T03:08:51.806Z,36.40
2018-10-21T03:11:19.959Z,36.50
2018-10-21T03:13:47.865Z,35.07
2018-10-21T03:16:16.000Z,34.87
2018-10-21T03:18:44.150Z,31.77
2018-10-21T03:21:12.391Z,31.27
2018-10-21T03:23:40.472Z,32.47
2018-10-21T03:26:08.595Z,38.00
2018-10-21T03:28:36.775Z,33.03
2018-10-21T03:31:04.919Z,34.77
2018-10-21T03:33:33.237Z,38.33
2018-10-21T03:36:01.253Z,43.03
2018-10-21T03:38:29.449Z,39.00
2018-10-21T03:40:57.670Z,37.27
2018-10-21T03:43:25.884Z,33.73
2018-10-21T03:45:54.098Z,38.27
2018-10-21T03:48:22.221Z,36.57
2018-10-21T03:50:50.369Z,35.90
2018-10-21T03:53:18.325Z,35.17
2018-10-21T03:55:46.482Z,28.73
2018-10-21T03:58:14.722Z,31.73
2018-10-21T04:00:42.822Z,28.43
2018-10-21T04:03:10.993Z,32.03
2018-10-21T04:05:38.921Z,29.87
2018-10-21T04:08:07.096Z,28.53
2018-10-21T04:10:35.278Z,34.20
2018-10-21T04:13:03.454Z,33.03
2018-10-21T04:15:31.425Z,28.63
2018-10-21T04:17:59.585Z,30.30
2018-10-21T04:20:28.006Z,25.03
2018-10-21T04:22:57.163Z,26.10
2018-10-21T04:25:26.101Z,30.70
2018-10-21T04:27:55.207Z,33.27
2018-10-21T04:30:25.330Z,31.73
2018-10-21T04:33:00.355Z,29.03
2018-10-21T04:35:29.481Z,33.10
2018-10-21T04:38:22.058Z,31.40
2018-10-21T04:40:50.205Z,37.80
2018-10-21T04:43:18.431Z,32.43
2018-10-21T04:45:46.570Z,35.93
2018-10-21T04:48:14.722Z,40.20
2018-10-21T04:50:43.082Z,37.30
2018-10-21T04:53:11.001Z,36.83
2018-10-21T04:55:38.929Z,36.30
2018-10-21T04:58:07.163Z,37.30
2018-10-21T05:00:35.076Z,40.97
2018-10-21T05:03:03.246Z,37.60
2018-10-21T05:05:31.409Z,31.77
2018-10-21T05:07:59.569Z,26.57
2018-10-21T05:10:31.813Z,33.77
2018-10-21T05:12:59.982Z,33.57
2018-10-21T05:15:29.372Z,31.60
2018-10-21T05:17:57.464Z,28.10
2018-10-21T05:20:25.654Z,27.43
2018-10-21T05:22:53.838Z,30.23
2018-10-21T05:25:22.109Z,28.60
2018-10-21T05:27:50.251Z,30.90
2018-10-21T05:30:18.382Z,36.67
2018-10-21T05:32:46.534Z,38.30
2018-10-21T05:35:15.690Z,30.63
2018-10-21T05:37:43.968Z,36.17
2018-10-21T05:40:14.443Z,34.13
2018-10-21T05:42:42.964Z,30.90
2018-10-21T05:45:10.895Z,34.77
2018-10-21T05:47:39.269Z,27.63
2018-10-21T05:50:07.725Z,30.67
2018-10-21T05:52:36.001Z,28.30
2018-10-21T05:55:04.174Z,27.80
2018-10-21T05:57:32.309Z,32.20
2018-10-21T06:00:00.449Z,36.50
2018-10-21T06:02:28.577Z,27.13
2018-10-21T06:04:56.489Z,26.00
2018-10-21T06:07:24.646Z,27.27
2018-10-21T06:09:52.882Z,30.37
2018-10-21T06:12:21.090Z,27.77
2018-10-21T06:14:49.969Z,29.77
2018-10-21T06:17:21.909Z,35.90
2018-10-21T06:19:55.418Z,34.10
2018-10-21T06:22:23.319Z,30.70
2018-10-21T06:24:51.233Z,29.70
2018-10-21T06:27:19.133Z,34.73
2018-10-21T06:29:47.289Z,30.37
2018-10-21T06:32:15.435Z,31.00
2018-10-21T06:34:43.594Z,34.67
2018-10-21T06:37:11.733Z,40.03
2018-10-21T06:39:39.633Z,31.17
2018-10-21T06:42:07.541Z,35.33
2018-10-21T06:44:35.665Z,34.70
2018-10-21T06:47:03.790Z,33.93
2018-10-21T06:49:31.926Z,32.50
2018-10-21T06:52:00.046Z,42.00
2018-10-21T06:54:28.237Z,41.20
2018-10-21T06:56:56.447Z,37.37
2018-10-21T06:59:24.559Z,34.40
2018-10-21T07:01:52.671Z,32.23
2018-10-21T07:04:20.794Z,34.50
2018-10-21T07:06:48.685Z,33.03
2018-10-21T07:09:16.818Z,38.17
2018-10-21T07:11:44.961Z,30.70
2018-10-21T07:14:12.865Z,32.00
2018-10-21T07:16:40.956Z,34.30
2018-10-21T07:19:08.730Z,31.20
2018-10-21T07:21:37.415Z,32.30
2018-10-21T07:24:06.098Z,34.77
2018-10-21T07:26:33.996Z,34.27
2018-10-21T07:29:02.138Z,29.53
2018-10-21T07:31:30.279Z,32.60
2018-10-21T07:33:58.446Z,35.43
2018-10-21T07:36:26.604Z,27.10
2018-10-21T07:38:54.714Z,29.57
2018-10-21T07:41:22.905Z,32.37
2018-10-21T07:43:50.805Z,32.50
2018-10-21T07:46:18.814Z,37.57
2018-10-21T07:48:46.651Z,36.00
2018-10-21T07:51:14.802Z,34.93
2018-10-21T07:53:42.937Z,35.03
2018-10-21T07:56:10.891Z,36.60
2018-10-21T07:58:39.053Z,39.73
2018-10-21T08:01:07.245Z,46.47
2018-10-21T08:03:35.388Z,36.63
2018-10-21T08:06:26.550Z,37.43
2018-10-21T08:08:54.505Z,33.93
2018-10-21T08:11:22.689Z,32.53
2018-10-21T08:13:50.921Z,31.80
2018-10-21T08:16:18.961Z,43.10
2018-10-21T08:18:46.819Z,45.40
2018-10-21T08:21:14.808Z,42.90
2018-10-21T08:23:42.914Z,38.53
2018-10-21T08:26:11.070Z,47.63
2018-10-21T08:28:39.253Z,42.43
2018-10-21T08:31:07.406Z,46.73
2018-10-21T08:33:35.581Z,38.10
2018-10-21T08:36:03.815Z,42.73
2018-10-21T08:38:31.873Z,41.50
2018-10-21T08:41:00.073Z,34.83
2018-10-21T08:43:28.211Z,33.97
2018-10-21T08:45:56.149Z,34.27
2018-10-21T08:48:24.263Z,36.07
2018-10-21T08:50:52.401Z,35.27
2018-10-21T08:53:20.945Z,42.70
2018-10-21T08:55:48.972Z,39.47
2018-10-21T08:58:17.114Z,46.87
2018-10-21T09:00:45.230Z,43.90
2018-10-21T09:03:13.813Z,48.97
2018-10-21T09:05:41.926Z,51.03
2018-10-21T09:08:10.230Z,47.67
2018-10-21T09:10:38.173Z,51.70
2018-10-21T09:13:06.294Z,54.47
2018-10-21T09:15:34.546Z,50.97
2018-10-21T09:18:02.625Z,54.00
2018-10-21T09:20:30.754Z,50.30
2018-10-21T09:22:58.897Z,59.67
2018-10-21T09:25:26.813Z,58.53
2018-10-21T09:27:54.940Z,53.77
2018-10-21T09:30:23.584Z,52.23
2018-10-21T09:32:51.726Z,53.77
2018-10-21T09:35:19.907Z,57.50
2018-10-21T09:37:48.074Z,54.07
2018-10-21T09:40:17.495Z,59.57
2018-10-21T09:42:46.104Z,59.07
2018-10-21T09:45:16.682Z,66.13
2018-10-21T09:47:44.883Z,71.27
2018-10-21T09:50:13.129Z,69.93
2018-10-21T09:52:41.038Z,71.23
2018-10-21T09:55:14.789Z,75.07
2018-10-21T09:57:43.091Z,72.77
2018-10-21T10:00:11.088Z,82.40
2018-10-21T10:02:44.621Z,66.73
2018-10-21T10:05:12.578Z,71.60
2018-10-21T10:07:40.433Z,61.07
2018-10-21T10:10:09.013Z,65.50
2018-10-21T10:12:37.135Z,65.83
2018-10-21T10:15:05.773Z,55.27
2018-10-21T10:17:33.991Z,53.63
2018-10-21T10:20:02.098Z,53.57
2018-10-21T10:22:30.258Z,48.37
2018-10-21T10:24:58.396Z,49.90
2018-10-21T10:27:26.542Z,48.03
2018-10-21T10:29:54.769Z,46.00
2018-10-21T10:32:22.907Z,44.57
2018-10-21T10:34:51.075Z,44.47
2018-10-21T10:37:19.234Z,49.63
2018-10-21T10:39:47.382Z,46.70
2018-10-21T10:42:15.592Z,41.57
2018-10-21T10:44:43.666Z,43.03
2018-10-21T10:47:11.834Z,40.90
2018-10-21T10:49:39.990Z,38.83
2018-10-21T10:52:08.311Z,41.53
2018-10-21T10:54:36.434Z,39.93
2018-10-21T10:57:04.646Z,38.80
2018-10-21T10:59:32.881Z,40.20
2018-10-21T11:02:01.086Z,36.43
2018-10-21T11:04:29.266Z,39.13
2018-10-21T11:06:57.608Z,36.47
2018-10-21T11:09:25.742Z,36.20
2018-10-21T11:11:53.658Z,33.57
2018-10-21T11:14:21.838Z,37.10
2018-10-21T11:16:49.760Z,34.33
2018-10-21T11:19:22.078Z,31.40
2018-10-21T11:21:50.123Z,33.40
2018-10-21T11:24:18.263Z,36.33
2018-10-21T11:26:46.459Z,33.77
2018-10-21T11:29:14.704Z,31.13
2018-10-21T11:31:42.894Z,30.07
2018-10-21T11:34:11.090Z,33.80
2018-10-21T11:36:39.429Z,28.77
2018-10-21T11:39:08.043Z,30.03
2018-10-21T11:41:36.215Z,41.03
2018-10-21T11:44:04.571Z,29.27
2018-10-21T11:46:33.057Z,27.17
2018-10-21T11:49:00.863Z,28.80
2018-10-21T11:51:28.809Z,25.20
2018-10-21T11:53:56.979Z,25.93
2018-10-21T11:56:25.110Z,23.47
2018-10-21T11:58:53.330Z,30.17
2018-10-21T12:01:21.245Z,21.80
2018-10-21T12:03:49.357Z,22.37
2018-10-21T12:06:17.470Z,24.73
2018-10-21T12:08:45.594Z,24.03
2018-10-21T12:11:13.834Z,23.43
2018-10-21T12:13:41.970Z,25.67
2018-10-21T12:16:10.246Z,21.90
2018-10-21T12:18:39.366Z,21.33
2018-10-21T12:21:07.566Z,22.37
2018-10-21T12:23:35.556Z,21.93
2018-10-21T12:26:04.549Z,22.07
2018-10-21T12:28:32.797Z,23.30
2018-10-21T12:31:01.180Z,20.90
2018-10-21T12:33:30.952Z,21.13
2018-10-21T12:35:59.131Z,21.10
2018-10-21T12:38:27.325Z,22.07
2018-10-21T12:40:55.508Z,19.80
2018-10-21T12:43:23.690Z,20.03
2018-10-21T12:45:51.665Z,17.73
2018-10-21T12:48:19.848Z,19.27
2018-10-21T12:50:48.050Z,19.53
2018-10-21T12:53:16.278Z,20.50
2018-10-21T12:55:48.521Z,18.23
2018-10-21T12:58:16.958Z,19.30
2018-10-21T13:00:45.099Z,20.87
2018-10-21T13:03:13.326Z,21.83
2018-10-21T13:05:41.823Z,18.20
2018-10-21T13:08:09.809Z,16.47
2018-10-21T13:10:37.946Z,16.67
2018-10-21T13:13:05.964Z,18.33
2018-10-21T13:15:34.090Z,13.30
2018-10-21T13:18:02.366Z,14.67
2018-10-21T13:20:30.557Z,13.57
2018-10-21T13:22:58.748Z,13.47
2018-10-21T13:25:26.911Z,11.77
2018-10-21T13:27:55.094Z,13.03
2018-10-21T13:30:23.258Z,11.87
2018-10-21T13:32:51.411Z,11.10
2018-10-21T13:35:20.334Z,11.97
2018-10-21T13:37:48.498Z,10.90
2018-10-21T13:40:16.722Z,12.03
2018-10-21T13:42:44.814Z,13.27
2018-10-21T13:45:12.848Z,10.60
2018-10-21T13:47:40.774Z,11.93
2018-10-21T13:50:08.934Z,10.30
2018-10-21T13:52:37.143Z,9.87
2018-10-21T13:55:05.069Z,8.50
2018-10-21T13:57:33.177Z,9.37
2018-10-21T14:00:01.383Z,11.43
2018-10-21T14:02:29.550Z,9.33
2018-10-21T14:04:57.732Z,8.90
2018-10-21T14:07:25.968Z,7.20
2018-10-21T14:09:54.190Z,9.27
2018-10-21T14:12:22.310Z,9.17
2018-10-21T14:14:50.491Z,9.53
2018-10-21T14:17:18.577Z,8.40
2018-10-21T14:19:46.698Z,9.57
2018-10-21T14:22:15.237Z,10.10
2018-10-21T14:24:43.095Z,7.17
2018-10-21T14:27:11.139Z,8.60
2018-10-21T14:29:39.271Z,6.10
2018-10-21T14:32:07.411Z,4.03
2018-10-21T14:34:35.557Z,3.00
2018-10-21T14:37:03.730Z,5.87
2018-10-21T14:39:31.909Z,3.90
2018-10-21T14:42:00.131Z,4.20
2018-10-21T14:44:28.283Z,14.27
2018-10-21T14:46:56.446Z,4.90
2018-10-21T14:49:24.604Z,4.07
2018-10-21T14:51:52.778Z,3.10
2018-10-21T14:54:20.947Z,4.43
2018-10-21T14:56:48.849Z,6.17
2018-10-21T14:59:16.982Z,7.17
2018-10-21T15:01:45.113Z,4.07
2018-10-21T15:04:13.334Z,3.90
2018-10-21T15:06:41.437Z,5.50
2018-10-21T15:09:11.262Z,5.13
2018-10-21T15:11:39.418Z,4.07
2018-10-21T15:14:08.477Z,3.60
2018-10-21T15:16:36.625Z,4.00
2018-10-21T15:19:04.855Z,3.37
2018-10-21T15:21:33.012Z,3.37
2018-10-21T15:24:00.930Z,4.90
2018-10-21T15:26:29.057Z,4.50
2018-10-21T15:28:57.287Z,4.80
2018-10-21T15:31:25.801Z,5.83
2018-10-21T15:33:55.867Z,3.80
2018-10-21T15:36:25.727Z,8.60
2018-10-21T15:38:53.961Z,4.00
2018-10-21T15:41:22.465Z,5.57
2018-10-21T15:43:50.420Z,3.40
2018-10-21T15:46:18.740Z,2.50
2018-10-21T15:48:47.956Z,3.93
2018-10-21T15:51:15.814Z,3.03
2018-10-21T15:53:43.705Z,3.20
2018-10-21T15:56:11.889Z,4.40
2018-10-21T15:58:40.022Z,3.27
2018-10-21T16:01:08.163Z,5.37
2018-10-21T16:03:36.306Z,7.80
2018-10-21T16:06:04.874Z,3.37
2018-10-21T16:08:33.017Z,7.50
2018-10-21T16:11:01.154Z,7.50
2018-10-21T16:13:29.295Z,15.63
2018-10-21T16:15:57.487Z,23.57
2018-10-21T16:18:25.590Z,10.10
2018-10-21T16:20:53.711Z,9.63
2018-10-21T16:23:21.838Z,5.17
2018-10-21T16:25:49.999Z,4.97
2018-10-21T16:28:18.180Z,4.03
2018-10-21T16:30:46.293Z,4.47
2018-10-21T16:33:14.414Z,5.03
2018-10-21T16:35:42.328Z,7.67
2018-10-21T16:38:10.476Z,6.63
2018-10-21T16:40:38.612Z,5.90
2018-10-21T16:43:06.761Z,5.37
2018-10-21T16:45:34.688Z,6.23
2018-10-21T16:48:02.620Z,3.63
2018-10-21T16:50:30.762Z,4.53
2018-10-21T16:52:59.017Z,4.93
2018-10-21T16:55:27.090Z,3.73
2018-10-21T16:57:55.249Z,3.70
2018-10-21T17:00:23.503Z,5.17
2018-10-21T17:02:51.562Z,3.57
2018-10-21T17:05:19.733Z,4.23
2018-10-21T17:07:47.878Z,4.30
2018-10-21T17:10:16.090Z,3.93
2018-10-21T17:12:43.946Z,3.60
2018-10-21T17:15:12.401Z,6.43
2018-10-21T17:17:44.786Z,3.00
2018-10-21T17:20:17.841Z,4.43
2018-10-21T17:22:46.195Z,4.20
2018-10-21T17:25:14.914Z,3.20
2018-10-21T17:27:43.114Z,3.13
2018-10-21T17:30:13.985Z,3.87
2018-10-21T17:32:43.081Z,5.50
2018-10-21T17:35:11.270Z,3.60
2018-10-21T17:37:39.725Z,4.13
2018-10-21T17:40:08.649Z,4.53
2018-10-21T17:42:36.895Z,3.73
2018-10-21T17:45:05.952Z,3.67
2018-10-21T17:47:34.054Z,4.73
2018-10-21T17:50:02.189Z,3.97
2018-10-21T17:52:30.381Z,3.23
2018-10-21T17:54:58.506Z,4.17
2018-10-21T17:57:26.343Z,3.20
2018-10-21T17:59:54.237Z,3.60
2018-10-21T18:02:22.353Z,4.60
2018-10-21T18:04:50.473Z,3.50
2018-10-21T18:07:18.642Z,7.30
2018-10-21T18:09:46.714Z,7.73
2018-10-21T18:12:14.838Z,7.77
2018-10-21T18:14:42.807Z,7.40
2018-10-21T18:17:10.699Z,6.30
2018-10-21T18:19:38.804Z,7.00
2018-10-21T18:22:06.962Z,7.63
2018-10-21T18:24:35.035Z,7.40
2018-10-21T18:27:02.936Z,6.57
2018-10-21T18:29:31.056Z,7.03
2018-10-21T18:31:58.964Z,7.17
2018-10-21T18:34:26.864Z,9.47
2018-10-21T18:36:54.819Z,5.47
2018-10-21T18:39:22.901Z,5.63
2018-10-21T18:41:51.013Z,5.67
2018-10-21T18:44:18.909Z,7.33
2018-10-21T18:46:46.805Z,7.53
2018-10-21T18:49:14.795Z,9.63
2018-10-21T18:51:42.653Z,6.97
2018-10-21T18:54:10.557Z,7.67
2018-10-21T18:56:38.694Z,7.80
2018-10-21T18:59:06.848Z,5.00
2018-10-21T19:01:35.004Z,6.83
2018-10-21T19:04:03.626Z,7.17
2018-10-21T19:06:31.658Z,7.07
2018-10-21T19:08:59.786Z,6.00
2018-10-21T19:11:27.694Z,8.27
2018-10-21T19:13:55.624Z,8.40
2018-10-21T19:16:23.749Z,10.47
2018-10-21T19:18:52.465Z,11.93
2018-10-21T19:21:20.698Z,7.57
2018-10-21T19:23:48.854Z,7.57
2018-10-21T19:26:16.769Z,6.57
2018-10-21T19:28:44.665Z,8.63
2018-10-21T19:31:12.823Z,10.93
2018-10-21T19:33:41.012Z,11.17
2018-10-21T19:36:09.133Z,13.87
2018-10-21T19:38:37.270Z,10.17
2018-10-21T19:41:05.441Z,12.17
2018-10-21T19:43:33.410Z,11.37
2018-10-21T19:46:01.539Z,9.40
2018-10-21T19:48:29.638Z,10.77
2018-10-21T19:50:57.548Z,12.30
2018-10-21T19:53:25.738Z,7.70
2018-10-21T19:55:54.461Z,6.53
2018-10-21T19:58:22.632Z,8.50
2018-10-21T20:00:50.781Z,6.47
2018-10-21T20:03:18.690Z,6.87
2018-10-21T20:05:46.617Z,11.50
2018-10-21T20:08:14.759Z,9.33
2018-10-21T20:10:42.891Z,9.50
2018-10-21T20:13:10.868Z,10.63
2018-10-21T20:15:38.713Z,11.60
2018-10-21T20:18:06.659Z,9.90
2018-10-21T20:20:34.830Z,13.17
2018-10-21T20:23:02.765Z,11.07
2018-10-21T20:25:30.692Z,14.37
2018-10-21T20:27:58.695Z,13.60
2018-10-21T20:30:26.748Z,11.27
2018-10-21T20:32:54.963Z,13.83
2018-10-21T20:35:22.806Z,15.10
2018-10-21T20:37:50.958Z,16.50
2018-10-21T20:40:18.899Z,11.43
2018-10-21T20:42:47.206Z,14.63
2018-10-21T20:45:15.133Z,15.07
2018-10-21T20:47:43.033Z,11.23
2018-10-21T20:50:10.953Z,10.67
2018-10-21T20:52:38.861Z,12.47
2018-10-21T20:55:07.220Z,9.90
2018-10-21T20:57:35.117Z,15.43
2018-10-21T21:00:03.309Z,10.83
2018-10-21T21:02:31.411Z,11.67
2018-10-21T21:04:59.311Z,13.53
2018-10-21T21:07:27.455Z,9.90
2018-10-21T21:09:55.373Z,13.87
2018-10-21T21:12:23.511Z,18.07
2018-10-21T21:14:51.663Z,10.80
2018-10-21T21:17:19.957Z,19.00
2018-10-21T21:19:48.094Z,21.93
2018-10-21T21:22:16.301Z,25.10
2018-10-21T21:24:44.785Z,20.23
2018-10-21T21:27:12.922Z,20.30
2018-10-21T21:29:41.185Z,25.27
2018-10-21T21:32:09.374Z,21.70
2018-10-21T21:34:37.298Z,21.53
2018-10-21T21:37:05.456Z,18.70
2018-10-21T21:39:33.586Z,14.73
2018-10-21T21:42:01.782Z,12.67
2018-10-21T21:44:29.893Z,11.13
2018-10-21T21:46:58.063Z,16.57
2018-10-21T21:49:26.207Z,12.10
2018-10-21T21:51:54.110Z,11.33
2018-10-21T21:54:22.218Z,11.17
2018-10-21T21:56:50.366Z,10.83
2018-10-21T21:59:18.483Z,14.63
2018-10-21T22:01:46.609Z,12.00
2018-10-21T22:04:14.752Z,8.83
2018-10-21T22:06:42.653Z,10.40
2018-10-21T22:09:11.661Z,9.70
2018-10-21T22:11:39.859Z,7.70
2018-10-21T22:14:08.503Z,14.17
2018-10-21T22:16:36.657Z,9.37
2018-10-21T22:19:04.979Z,12.20
2018-10-21T22:21:33.030Z,9.77
2018-10-21T22:24:00.962Z,9.23
2018-10-21T22:26:29.077Z,8.00
2018-10-21T22:28:57.421Z,10.13
2018-10-21T22:31:25.621Z,10.23
2018-10-21T22:33:53.760Z,11.67
2018-10-21T22:36:21.898Z,9.97
2018-10-21T22:38:50.025Z,13.50
2018-10-21T22:41:18.301Z,11.10
2018-10-21T22:43:46.419Z,10.67
2018-10-21T22:46:14.819Z,13.10
2018-10-21T22:48:42.665Z,9.63
2018-10-21T22:51:10.789Z,9.90
2018-10-21T22:53:38.926Z,9.00
2018-10-21T22:56:07.074Z,10.53
2018-10-21T22:58:35.010Z,9.23
2018-10-21T23:01:02.924Z,10.77
2018-10-21T23:03:31.068Z,8.77
2018-10-21T23:05:59.004Z,14.43
2018-10-21T23:08:26.892Z,11.53
2018-10-21T23:10:54.812Z,8.93
2018-10-21T23:13:22.951Z,10.20
2018-10-21T23:15:50.845Z,9.23
2018-10-21T23:18:18.780Z,11.07
2018-10-21T23:20:46.677Z,9.43
2018-10-21T23:23:14.813Z,10.57
2018-10-21T23:25:42.987Z,9.93
2018-10-21T23:28:11.186Z,8.77
2018-10-21T23:30:39.264Z,9.67
2018-10-21T23:33:07.174Z,8.77
2018-10-21T23:35:35.302Z,9.77
2018-10-21T23:38:03.449Z,9.93
2018-10-21T23:40:31.573Z,11.37
2018-10-21T23:42:59.752Z,9.03
2018-10-21T23:45:27.916Z,8.83
2018-10-21T23:47:56.128Z,8.63
2018-10-21T23:50:24.217Z,9.67
2018-10-21T23:52:52.366Z,8.73
2018-10-21T23:55:20.554Z,12.07
2018-10-21T23:57:48.701Z,8.73
